Terminal Aerodrome Forecast
Issued by NWS

Home | Current Version | Previous Version | Text Only | Print | Product List | Glossary On
Versions: 1 2 3 4 5 6 7 8 9 10 11 12 13 14 15 16 17 18 19 20 21 22 23 24 25 26 27 28 29
988
FTUS43 KLSX 132320
TAFUIN
TAF
KUIN 132320Z 1400/1424 07007KT P6SM OVC040
     FM140300 08007KT P6SM OVC020
     FM140800 06006KT 4SM -FZRA BR OVC012
     FM141300 02006KT 5SM BR OVC010
     FM142100 36006KT P6SM OVC020=

USA.gov is the U.S. government's official web portal to all federal, state and local government web resources and services.